Ashton, MD (20861)

2:17 AM EDT on October 23, 2014 (GMT -0400)
Hampshire Greens | Change Station
CLOSE
Current Station
Personal Weather Station
Location: Silver Spring, MD
Elevation: 472 ft
Nearby Weather Stations

Elev 472 ft 39.13 °N, 77.00 °W | Updated 39 seconds ago

Overcast
Overcast
50.0 °F
Feels Like 47 °F
N
6.9
Wind Variable Wind from WNW
Gusts 10.1 mph

Today
High -- | Low -- °F
--% Chance of Precip.
Yesterday
High -- | Low -- °F
Precip. -- in
7:25 AM 6:18 PM
Waning Crescent, 0% visible
Pressure 29.94 in
Visibility 10.0 miles
Clouds Overcast 3400 ft
Windchill 47 °F
Dew Point 43 °F
Humidity 78%
Rainfall 0.00 in
Snow Depth Not available.
UV 0 out of 12
Pollen .30 out of 12
Air Quality Not available.
Flu Activity Sporadic
METAR KGAI 230555Z 30010G14KT 10SM OVC034 09/05 A2994 RMK AO1 10120 20090 57014

More Conditions Fewer Conditions

Pressure 29.94 in
Visibility 10.0 miles
Clouds Overcast 3400 ft
Windchill 47 °F
Dew Point 43 °F
Humidity 78%
Rainfall 0.00 in
Snow Depth Not available.
UV 0 out of 12
Pollen .30 out of 12
Air Quality Not available.
Flu Activity Sporadic
METAR KGAI 230555Z 30010G14KT 10SM OVC034 09/05 A2994 RMK AO1 10120 20090 57014

More Conditions Fewer Conditions

10-Day Weather Forecast

Almanac

Astronomy

Oct. 23, 2014 Rise Set
Actual Time 7:25 AM EDT 6:18 PM EDT
Civil Twilight 6:58 AM EDT 6:45 PM EDT
Nautical Twilight 6:27 AM EDT 7:16 PM EDT
Astronomical Twilight 5:56 AM EDT 7:47 PM EDT
Moon 7:03 AM EDT 6:18 PM EDT
Length of Visible Light 11h 46m
Length of Day
10h 52m
Tomorrow will be 2m 23s shorter.
Waning Crescent, 0% of the Moon is Illuminated
Today
Waning Crescent
Oct 23
New
Oct 30
First Quarter
Nov 6
Full
Nov 14
Last Quarter

Today's Extremes

State Highs State Lows

Community

WunderPhotos

Upload Photos

1,764,194 photos uploaded!

Nearby

Snow Depth

Station Depth Elevation
No new snow has been reported.

Earthquake Activity

City Distance Mag. Time & Date
No recent earthquake activity has been reported nearby.
Minimum magnitude displayed is 2.5.

Coastal Water Temperatures

Place Temperature
Washington, DC 62.1 °F
Baltimore, MD 64.9 °F
Solomons Island, MD 64.0 °F

Nearby Weather Stations